createdAt,value
2017-12-01T00:00:32.555Z,14.93
2017-12-01T00:03:00.908Z,15.63
2017-12-01T00:05:29.237Z,26.05
2017-12-01T00:07:57.556Z,18.73
2017-12-01T00:10:25.910Z,24.48
2017-12-01T00:12:54.219Z,16.90
2017-12-01T00:15:22.534Z,16.70
2017-12-01T00:17:50.846Z,19.67
2017-12-01T00:20:19.177Z,13.77
2017-12-01T00:22:47.512Z,11.63
2017-12-01T00:25:15.822Z,18.58
2017-12-01T00:27:44.136Z,18.45
2017-12-01T00:30:13.222Z,11.40
2017-12-01T00:32:42.302Z,17.45
2017-12-01T00:35:10.634Z,15.98
2017-12-01T00:37:38.958Z,19.15
2017-12-01T00:40:07.260Z,19.62
2017-12-01T00:42:35.580Z,13.05
2017-12-01T00:45:03.894Z,12.80
2017-12-01T00:47:32.978Z,13.15
2017-12-01T00:50:01.284Z,18.92
2017-12-01T00:52:29.594Z,14.50
2017-12-01T00:54:57.909Z,11.85
2017-12-01T00:57:26.283Z,16.40
2017-12-01T00:59:54.562Z,19.33
2017-12-01T01:02:22.900Z,14.90
2017-12-01T01:04:51.229Z,19.35
2017-12-01T01:07:20.328Z,22.40
2017-12-01T01:09:49.438Z,17.92
2017-12-01T01:12:17.774Z,11.52
2017-12-01T01:14:46.090Z,22.08
2017-12-01T01:17:15.168Z,21.08
2017-12-01T01:19:44.263Z,19.85
2017-12-01T01:22:13.384Z,11.18
2017-12-01T01:24:41.707Z,9.10
2017-12-01T01:27:10.039Z,10.30
2017-12-01T01:29:38.351Z,13.27
2017-12-01T01:32:06.678Z,15.40
2017-12-01T01:34:35.764Z,19.60
2017-12-01T01:37:04.857Z,16.48
2017-12-01T01:39:33.934Z,21.37
2017-12-01T01:42:02.266Z,19.83
2017-12-01T01:44:30.610Z,15.38
2017-12-01T01:46:59.694Z,19.23
2017-12-01T01:49:28.022Z,18.08
2017-12-01T01:51:56.366Z,11.07
2017-12-01T01:54:25.468Z,20.65
2017-12-01T01:56:53.788Z,19.83
2017-12-01T01:59:22.111Z,21.73
2017-12-01T02:01:51.198Z,23.70
2017-12-01T02:04:19.523Z,22.23
2017-12-01T02:06:47.892Z,15.93
2017-12-01T02:09:16.196Z,18.48
2017-12-01T02:11:44.507Z,15.02
2017-12-01T02:14:12.806Z,16.45
2017-12-01T02:16:41.112Z,21.83
2017-12-01T02:19:09.431Z,20.23
2017-12-01T02:21:37.742Z,24.20
2017-12-01T02:24:06.037Z,23.55
2017-12-01T02:26:34.341Z,24.87
2017-12-01T02:29:02.650Z,25.62
2017-12-01T02:31:31.721Z,26.62
2017-12-01T02:34:00.026Z,25.75
2017-12-01T02:36:29.075Z,23.20
2017-12-01T02:38:57.385Z,23.48
2017-12-01T02:41:26.448Z,26.87
2017-12-01T02:43:54.732Z,23.80
2017-12-01T02:46:23.053Z,22.25
2017-12-01T02:48:51.355Z,28.23
2017-12-01T02:51:19.652Z,25.67
2017-12-01T02:53:47.939Z,25.48
2017-12-01T02:56:16.244Z,28.83
2017-12-01T02:58:45.340Z,34.15
2017-12-01T03:01:14.404Z,36.40
2017-12-01T03:03:42.725Z,37.15
2017-12-01T03:06:11.042Z,38.70
2017-12-01T03:08:39.402Z,37.28
2017-12-01T03:11:07.732Z,49.85
2017-12-01T03:13:36.023Z,46.70
2017-12-01T03:16:05.086Z,39.97
2017-12-01T03:18:33.408Z,37.67
2017-12-01T03:21:01.709Z,48.97
2017-12-01T03:23:30.026Z,48.15
2017-12-01T03:25:58.349Z,43.60
2017-12-01T03:28:26.667Z,44.97
2017-12-01T03:30:54.999Z,44.08
2017-12-01T03:33:23.338Z,48.92
2017-12-01T03:35:51.667Z,53.20
2017-12-01T03:38:20.006Z,53.22
2017-12-01T03:40:49.120Z,51.13
2017-12-01T03:43:17.455Z,50.30
2017-12-01T03:45:45.774Z,51.37
2017-12-01T03:48:14.100Z,63.58
2017-12-01T03:50:42.431Z,52.88
2017-12-01T03:53:10.770Z,52.25
2017-12-01T03:55:39.102Z,61.80
2017-12-01T03:58:07.412Z,59.22
2017-12-01T04:00:35.725Z,57.53
2017-12-01T04:03:04.795Z,59.72
2017-12-01T04:05:33.099Z,55.90
2017-12-01T04:08:01.447Z,67.60
2017-12-01T04:10:29.738Z,60.75
2017-12-01T04:12:58.803Z,71.60
2017-12-01T04:15:27.095Z,74.03
2017-12-01T04:17:55.402Z,71.28
2017-12-01T04:20:23.696Z,78.03
2017-12-01T04:22:52.005Z,67.28
2017-12-01T04:25:20.301Z,64.15
2017-12-01T04:27:48.620Z,82.28
2017-12-01T04:30:16.911Z,80.93
2017-12-01T04:32:45.205Z,71.68
2017-12-01T04:35:13.524Z,87.93
2017-12-01T04:37:42.602Z,95.80
2017-12-01T04:40:10.931Z,89.60
2017-12-01T04:42:39.236Z,84.90
2017-12-01T04:45:07.534Z,99.18
2017-12-01T04:47:35.806Z,123.07
2017-12-01T04:50:04.124Z,127.45
2017-12-01T04:52:32.418Z,103.75
2017-12-01T04:55:00.719Z,144.07
2017-12-01T04:57:29.015Z,112.22
2017-12-01T04:59:57.325Z,132.82
2017-12-01T05:02:25.628Z,110.57
2017-12-01T05:04:53.924Z,126.65
2017-12-01T05:07:22.222Z,130.85
2017-12-01T05:09:50.519Z,129.85
2017-12-01T05:12:19.579Z,140.30
2017-12-01T05:14:47.859Z,154.70
2017-12-01T05:17:16.150Z,140.52
2017-12-01T05:19:45.209Z,162.50
2017-12-01T05:22:13.509Z,161.77
2017-12-01T05:24:41.808Z,160.95
2017-12-01T05:27:10.883Z,146.55
2017-12-01T05:29:39.172Z,133.52
2017-12-01T05:32:08.262Z,151.80
2017-12-01T05:34:36.555Z,130.52
2017-12-01T05:37:05.625Z,141.10
2017-12-01T05:39:33.932Z,165.52
2017-12-01T05:42:02.223Z,163.82
2017-12-01T05:44:30.524Z,156.07
2017-12-01T05:46:58.842Z,135.68
2017-12-01T05:49:27.136Z,166.23
2017-12-01T05:51:56.225Z,197.65
2017-12-01T05:54:25.272Z,158.00
2017-12-01T05:56:53.567Z,150.20
2017-12-01T05:59:21.858Z,165.45
2017-12-01T06:01:50.909Z,157.80
2017-12-01T06:04:19.206Z,143.15
2017-12-01T06:06:47.499Z,143.07
2017-12-01T06:09:15.798Z,112.47
2017-12-01T06:11:44.851Z,127.95
2017-12-01T06:14:13.161Z,121.55
2017-12-01T06:16:42.231Z,105.22
2017-12-01T06:19:10.571Z,124.70
2017-12-01T06:21:38.855Z,142.77
2017-12-01T06:24:07.154Z,130.07
2017-12-01T06:26:35.459Z,127.50
2017-12-01T06:29:04.515Z,123.47
2017-12-01T06:31:32.805Z,121.57
2017-12-01T06:34:01.098Z,123.00
2017-12-01T06:36:29.408Z,100.35
2017-12-01T06:38:57.704Z,106.63
2017-12-01T06:41:26.060Z,92.37
2017-12-01T06:43:54.401Z,81.47
2017-12-01T06:46:22.734Z,73.87
2017-12-01T06:48:51.044Z,73.95
2017-12-01T06:51:19.370Z,78.22
2017-12-01T06:53:47.694Z,76.90
2017-12-01T06:56:16.021Z,66.30
2017-12-01T06:58:44.380Z,57.88
2017-12-01T07:01:13.464Z,74.85
2017-12-01T07:03:41.811Z,61.88
2017-12-01T07:06:10.148Z,70.93
2017-12-01T07:08:38.491Z,64.07
2017-12-01T07:11:06.823Z,58.10
2017-12-01T07:13:35.159Z,53.75
2017-12-01T07:16:04.254Z,56.78
2017-12-01T07:18:33.373Z,65.35
2017-12-01T07:21:01.722Z,61.85
2017-12-01T07:23:30.827Z,67.55
2017-12-01T07:29:11.417Z,71.87
2017-12-01T07:31:39.761Z,56.33
2017-12-01T07:34:08.112Z,65.20
2017-12-01T07:36:36.422Z,65.57
2017-12-01T07:39:05.536Z,70.97
2017-12-01T07:41:34.656Z,61.42
2017-12-01T07:44:09.231Z,80.57
2017-12-01T07:46:37.579Z,87.70
2017-12-01T07:49:05.957Z,78.53
2017-12-01T07:51:34.321Z,77.40
2017-12-01T07:54:02.659Z,75.62
2017-12-01T07:56:31.766Z,52.72
2017-12-01T07:59:01.230Z,70.45
2017-12-01T08:01:29.562Z,52.25
2017-12-01T08:03:57.896Z,52.60
2017-12-01T08:06:26.239Z,49.97
2017-12-01T08:08:54.574Z,56.90
2017-12-01T08:11:23.669Z,44.33
2017-12-01T08:13:52.770Z,39.97
2017-12-01T08:19:34.303Z,36.33
2017-12-01T08:22:20.566Z,46.72
2017-12-01T08:25:07.320Z,32.10
2017-12-01T08:27:35.651Z,39.85
2017-12-01T08:30:04.749Z,33.58
2017-12-01T08:32:36.305Z,32.58
2017-12-01T08:35:05.389Z,29.83
2017-12-01T08:37:34.463Z,24.50
2017-12-01T08:40:02.813Z,26.42
2017-12-01T08:42:31.146Z,26.40
2017-12-01T08:44:59.477Z,27.60
2017-12-01T08:47:27.796Z,34.08
2017-12-01T08:49:56.896Z,21.40
2017-12-01T08:52:26.219Z,22.73
2017-12-01T08:54:54.551Z,25.12
2017-12-01T08:57:22.885Z,28.27
2017-12-01T08:59:51.226Z,29.42
2017-12-01T09:02:20.333Z,24.27
2017-12-01T09:04:48.678Z,25.70
2017-12-01T09:07:17.791Z,23.83
2017-12-01T09:09:46.890Z,30.27
2017-12-01T09:12:15.994Z,30.75
2017-12-01T09:14:44.332Z,32.58
2017-12-01T09:17:12.672Z,30.33
2017-12-01T09:19:41.014Z,27.27
2017-12-01T09:22:10.108Z,35.23
2017-12-01T09:24:39.207Z,27.52
2017-12-01T09:27:08.326Z,31.20
2017-12-01T09:29:36.661Z,28.90
2017-12-01T09:32:05.034Z,29.92
2017-12-01T09:34:33.362Z,30.55
2017-12-01T09:37:01.722Z,25.73
2017-12-01T09:39:30.070Z,28.10
2017-12-01T09:41:58.406Z,29.58
2017-12-01T09:44:26.775Z,28.05
2017-12-01T09:46:55.102Z,32.20
2017-12-01T09:49:23.430Z,39.20
2017-12-01T09:51:51.749Z,29.02
2017-12-01T09:54:20.094Z,31.05
2017-12-01T09:56:48.407Z,31.40
2017-12-01T09:59:16.772Z,30.42
2017-12-01T10:01:45.124Z,30.83
2017-12-01T10:04:13.451Z,33.47
2017-12-01T10:06:42.548Z,30.10
2017-12-01T10:09:10.890Z,27.27
2017-12-01T10:11:39.235Z,30.53
2017-12-01T10:14:07.576Z,31.10
2017-12-01T10:16:35.924Z,30.30
2017-12-01T10:19:04.284Z,34.20
2017-12-01T10:21:32.599Z,30.52
2017-12-01T10:24:00.920Z,35.33
2017-12-01T10:26:29.250Z,33.27
2017-12-01T10:28:57.603Z,33.30
2017-12-01T10:31:25.904Z,33.90
2017-12-01T10:33:54.235Z,28.13
2017-12-01T10:36:22.590Z,28.50
2017-12-01T10:38:50.918Z,24.63
2017-12-01T10:41:19.284Z,29.12
2017-12-01T10:43:47.618Z,25.63
2017-12-01T10:46:16.723Z,29.63
2017-12-01T10:48:45.845Z,25.60
2017-12-01T10:51:14.161Z,26.12
2017-12-01T10:53:42.506Z,20.40
2017-12-01T10:56:10.843Z,21.37
2017-12-01T10:58:39.182Z,31.20
2017-12-01T11:01:07.498Z,20.92
2017-12-01T11:03:36.580Z,23.27
2017-12-01T11:06:05.661Z,22.30
2017-12-01T11:08:33.988Z,76.17
2017-12-01T11:11:02.308Z,35.53
2017-12-01T11:13:30.642Z,38.03
2017-12-01T11:15:58.947Z,24.42
2017-12-01T11:18:27.280Z,26.30
2017-12-01T11:20:55.599Z,32.53
2017-12-01T11:23:23.942Z,24.37
2017-12-01T11:25:52.282Z,22.83
2017-12-01T11:28:20.594Z,22.25
2017-12-01T11:30:48.904Z,24.80
2017-12-01T11:33:17.216Z,21.90
2017-12-01T11:35:45.543Z,17.63
2017-12-01T11:38:13.889Z,20.73
2017-12-01T11:40:42.994Z,17.73
2017-12-01T11:43:11.299Z,19.17
2017-12-01T11:45:39.622Z,17.73
2017-12-01T11:48:07.909Z,14.50
2017-12-01T11:50:36.953Z,13.13
2017-12-01T11:53:05.237Z,15.60
2017-12-01T11:55:33.507Z,18.17
2017-12-01T11:58:01.762Z,20.37
2017-12-01T12:00:31.771Z,17.13
2017-12-01T12:03:00.041Z,14.27
2017-12-01T12:05:29.084Z,20.37
2017-12-01T12:07:57.344Z,16.90
2017-12-01T12:10:25.599Z,15.93
2017-12-01T12:12:53.863Z,17.23
2017-12-01T12:15:22.129Z,16.10
2017-12-01T12:17:51.148Z,19.73
2017-12-01T12:20:19.410Z,14.90
2017-12-01T12:22:47.714Z,12.37
2017-12-01T12:25:15.981Z,12.60
2017-12-01T12:27:44.268Z,16.77
2017-12-01T12:30:12.534Z,11.20
2017-12-01T12:32:40.807Z,15.00
2017-12-01T12:35:09.083Z,11.57
2017-12-01T12:37:37.379Z,10.43
2017-12-01T12:40:05.693Z,12.60
2017-12-01T12:42:34.753Z,11.13
2017-12-01T12:45:03.025Z,9.23
2017-12-01T12:47:31.284Z,10.20
2017-12-01T12:49:59.532Z,10.63
2017-12-01T12:52:27.798Z,11.17
2017-12-01T12:54:56.808Z,11.23
2017-12-01T12:57:25.071Z,13.33
2017-12-01T12:59:54.092Z,15.73
2017-12-01T13:02:22.372Z,11.57
2017-12-01T13:04:50.626Z,15.50
2017-12-01T13:07:18.885Z,12.43
2017-12-01T13:09:47.924Z,13.13
2017-12-01T13:12:16.178Z,14.97
2017-12-01T13:14:44.446Z,12.57
2017-12-01T13:17:12.689Z,11.63
2017-12-01T13:19:41.003Z,12.47
2017-12-01T13:22:09.254Z,15.60
2017-12-01T13:24:38.293Z,12.65
2017-12-01T13:27:06.549Z,13.07
2017-12-01T13:29:34.807Z,14.13
2017-12-01T13:32:03.071Z,11.03
2017-12-01T13:34:31.331Z,11.50
2017-12-01T13:36:59.599Z,14.20
2017-12-01T13:39:27.880Z,29.27
2017-12-01T13:41:56.153Z,13.27
2017-12-01T13:44:24.423Z,13.00
2017-12-01T13:46:52.717Z,10.93
2017-12-01T13:49:20.995Z,13.10
2017-12-01T13:51:49.247Z,13.70
2017-12-01T13:54:17.504Z,12.48
2017-12-01T13:56:45.776Z,15.57
2017-12-01T13:59:14.036Z,14.63
2017-12-01T14:01:42.311Z,13.57
2017-12-01T14:04:10.568Z,13.77
2017-12-01T14:06:39.606Z,14.05
2017-12-01T14:09:07.880Z,18.83
2017-12-01T14:11:36.137Z,11.50
2017-12-01T14:14:04.404Z,13.50
2017-12-01T14:16:32.665Z,15.20
2017-12-01T14:19:00.932Z,21.17
2017-12-01T14:21:29.966Z,18.10
2017-12-01T14:23:58.226Z,20.85
2017-12-01T14:26:26.484Z,24.03
2017-12-01T14:28:54.777Z,23.27
2017-12-01T14:31:23.048Z,21.85
2017-12-01T14:33:51.316Z,15.73
2017-12-01T14:36:19.575Z,17.17
2017-12-01T14:38:47.885Z,17.20
2017-12-01T14:41:16.179Z,15.35
2017-12-01T14:43:44.447Z,15.77
2017-12-01T14:46:12.722Z,16.97
2017-12-01T14:48:40.996Z,14.70
2017-12-01T14:51:09.250Z,16.75
2017-12-01T14:53:37.526Z,19.43
2017-12-01T14:56:05.787Z,16.42
2017-12-01T14:58:34.818Z,18.33
2017-12-01T15:01:03.084Z,13.82
2017-12-01T15:03:31.351Z,12.97
2017-12-01T15:05:59.623Z,14.18
2017-12-01T15:08:27.887Z,15.02
2017-12-01T15:10:56.930Z,21.85
2017-12-01T15:13:25.953Z,15.98
2017-12-01T15:15:54.225Z,14.05
2017-12-01T15:18:22.486Z,15.45
2017-12-01T15:20:50.762Z,15.40
2017-12-01T15:23:19.028Z,12.90
2017-12-01T15:25:47.303Z,15.43
2017-12-01T15:28:15.560Z,14.85
2017-12-01T15:30:43.828Z,13.70
2017-12-01T15:33:12.083Z,17.30
2017-12-01T15:35:40.356Z,18.37
2017-12-01T15:38:09.382Z,17.40
2017-12-01T15:40:37.656Z,15.30
2017-12-01T15:43:05.905Z,14.90
2017-12-01T15:45:34.850Z,12.77
2017-12-01T15:48:05.490Z,15.85
2017-12-01T15:50:33.807Z,14.60
2017-12-01T15:53:04.991Z,17.17
2017-12-01T15:55:36.872Z,16.08
2017-12-01T15:58:05.154Z,17.25
2017-12-01T16:00:33.499Z,14.43
2017-12-01T16:03:01.842Z,15.82
2017-12-01T16:05:31.352Z,19.12
2017-12-01T16:08:00.298Z,16.00
2017-12-01T16:10:28.643Z,14.23
2017-12-01T16:12:56.945Z,18.08
2017-12-01T16:15:25.316Z,17.33
2017-12-01T16:17:53.731Z,16.20
2017-12-01T16:20:22.812Z,17.20
2017-12-01T16:22:51.067Z,17.60
2017-12-01T16:25:20.102Z,12.07
2017-12-01T16:27:49.134Z,16.85
2017-12-01T16:30:20.109Z,19.55
2017-12-01T16:32:51.255Z,14.38
2017-12-01T16:35:18.660Z,12.35
2017-12-01T16:37:46.933Z,14.20
2017-12-01T16:40:15.198Z,15.57
2017-12-01T16:42:43.462Z,15.90
2017-12-01T16:45:12.523Z,12.35
2017-12-01T16:47:44.411Z,16.52
2017-12-01T16:50:13.512Z,19.98
2017-12-01T16:52:42.557Z,25.02
2017-12-01T16:55:10.829Z,23.35
2017-12-01T16:57:39.081Z,18.50
2017-12-01T17:00:07.351Z,25.47
2017-12-01T17:02:35.622Z,25.50
2017-12-01T17:05:03.914Z,24.08
2017-12-01T17:07:32.185Z,21.70
2017-12-01T17:10:00.450Z,21.77
2017-12-01T17:12:28.713Z,27.58
2017-12-01T17:14:57.738Z,29.63
2017-12-01T17:17:38.814Z,31.50
2017-12-01T17:20:09.569Z,36.15
2017-12-01T17:22:37.916Z,30.50
2017-12-01T17:25:06.257Z,29.92
2017-12-01T17:27:35.330Z,35.08
2017-12-01T17:30:04.851Z,35.13
2017-12-01T17:32:34.663Z,31.33
2017-12-01T17:35:04.929Z,35.70
2017-12-01T17:37:33.212Z,27.75
2017-12-01T17:40:01.539Z,33.08
2017-12-01T17:42:29.911Z,30.20
2017-12-01T17:44:58.261Z,23.90
2017-12-01T17:47:26.579Z,29.10
2017-12-01T17:49:55.708Z,32.85
2017-12-01T17:52:24.037Z,32.33
2017-12-01T17:54:52.341Z,32.65
2017-12-01T17:57:21.404Z,23.83
2017-12-01T17:59:49.656Z,20.75
2017-12-01T18:02:17.913Z,21.02
2017-12-01T18:04:46.193Z,18.50
2017-12-01T18:07:14.703Z,17.02
2017-12-01T18:09:43.033Z,22.55
2017-12-01T18:12:11.360Z,24.80
2017-12-01T18:14:39.727Z,25.52
2017-12-01T18:17:08.046Z,29.12
2017-12-01T18:19:37.139Z,31.90
2017-12-01T18:22:05.397Z,33.70
2017-12-01T18:24:33.721Z,35.47
2017-12-01T18:27:02.011Z,33.22
2017-12-01T18:29:30.304Z,33.22
2017-12-01T18:31:58.616Z,33.15
2017-12-01T18:34:26.913Z,38.83
2017-12-01T18:36:55.220Z,34.60
2017-12-01T18:39:23.515Z,36.75
2017-12-01T18:41:51.968Z,35.60
2017-12-01T18:44:20.245Z,36.88
2017-12-01T18:46:48.597Z,35.35
2017-12-01T18:49:17.738Z,41.28
2017-12-01T18:51:46.069Z,43.83
2017-12-01T18:54:15.213Z,52.47
2017-12-01T18:56:44.355Z,55.17
2017-12-01T18:59:13.455Z,53.85
2017-12-01T19:01:42.545Z,67.75
2017-12-01T19:04:11.645Z,51.35
2017-12-01T19:06:40.740Z,55.85
2017-12-01T19:09:09.870Z,58.22
2017-12-01T19:11:38.221Z,52.83
2017-12-01T19:14:06.526Z,69.65
2017-12-01T19:16:34.828Z,61.08
2017-12-01T19:19:03.183Z,59.05
2017-12-01T19:21:31.493Z,63.05
2017-12-01T19:24:01.761Z,63.35
2017-12-01T19:26:30.108Z,65.55
2017-12-01T19:28:58.391Z,70.37
2017-12-01T19:31:27.489Z,71.85
2017-12-01T19:33:56.602Z,65.68
2017-12-01T19:36:24.948Z,66.90
2017-12-01T19:39:07.763Z,54.75
2017-12-01T19:41:36.129Z,45.15
2017-12-01T19:44:04.479Z,45.63
2017-12-01T19:46:32.784Z,44.30
2017-12-01T19:49:01.102Z,48.78
2017-12-01T19:51:29.388Z,47.45
2017-12-01T19:53:57.935Z,48.75
2017-12-01T19:56:26.269Z,47.45
2017-12-01T19:58:55.458Z,39.45
2017-12-01T20:01:23.763Z,45.38
2017-12-01T20:03:52.064Z,48.60
2017-12-01T20:06:21.134Z,49.33
2017-12-01T20:08:49.464Z,48.70
2017-12-01T20:11:17.763Z,49.60
2017-12-01T20:13:46.058Z,46.10
2017-12-01T20:16:18.833Z,40.85
2017-12-01T20:18:47.190Z,43.95
2017-12-01T20:21:15.489Z,51.55
2017-12-01T20:23:43.786Z,46.17
2017-12-01T20:26:14.553Z,55.30
2017-12-01T20:28:43.696Z,50.83
2017-12-01T20:31:12.010Z,51.45
2017-12-01T20:33:50.671Z,50.15
2017-12-01T20:36:22.893Z,66.43
2017-12-01T20:38:51.237Z,55.95
2017-12-01T20:41:19.499Z,58.42
2017-12-01T20:43:47.796Z,60.78
2017-12-01T20:46:16.058Z,62.65
2017-12-01T20:48:46.088Z,66.40
2017-12-01T20:51:14.455Z,66.65
2017-12-01T20:53:54.593Z,58.39
2017-12-01T20:56:22.942Z,66.90
2017-12-01T20:58:51.244Z,71.62
2017-12-01T21:01:19.538Z,73.35
2017-12-01T21:03:48.058Z,75.65
2017-12-01T21:06:27.521Z,73.00
2017-12-01T21:08:55.901Z,69.45
2017-12-01T21:11:24.285Z,59.75
2017-12-01T21:13:52.633Z,71.18
2017-12-01T21:16:21.733Z,85.12
2017-12-01T21:18:50.856Z,60.95
2017-12-01T21:21:19.218Z,54.70
2017-12-01T21:23:48.378Z,58.20
2017-12-01T21:26:16.749Z,57.53
2017-12-01T21:28:45.086Z,56.25
2017-12-01T21:31:13.501Z,50.78
2017-12-01T21:33:43.549Z,57.47
2017-12-01T21:36:12.695Z,46.72
2017-12-01T21:38:41.065Z,39.92
2017-12-01T21:41:09.428Z,55.58
2017-12-01T21:43:38.540Z,44.63
2017-12-01T21:46:06.899Z,49.25
2017-12-01T21:48:36.042Z,47.95
2017-12-01T21:51:04.454Z,49.90
2017-12-01T21:53:32.890Z,48.38
2017-12-01T21:56:01.253Z,40.03
2017-12-01T21:58:29.649Z,31.02
2017-12-01T22:00:57.982Z,29.77
2017-12-01T22:03:27.083Z,53.05
2017-12-01T22:05:56.303Z,50.08
2017-12-01T22:08:24.684Z,51.65
2017-12-01T22:10:53.029Z,49.08
2017-12-01T22:13:21.380Z,50.12
2017-12-01T22:15:49.713Z,48.42
2017-12-01T22:18:18.114Z,51.10
2017-12-01T22:20:46.563Z,57.75
2017-12-01T22:23:14.938Z,56.85
2017-12-01T22:25:43.346Z,62.55
2017-12-01T22:28:11.800Z,68.32
2017-12-01T22:30:40.192Z,60.38
2017-12-01T22:33:08.556Z,57.97
2017-12-01T22:35:36.907Z,59.92
2017-12-01T22:38:05.246Z,78.53
2017-12-01T22:40:34.362Z,64.68
2017-12-01T22:43:02.668Z,61.13
2017-12-01T22:45:31.851Z,56.80
2017-12-01T22:48:01.047Z,57.25
2017-12-01T22:50:31.057Z,70.95
2017-12-01T22:52:59.428Z,57.80
2017-12-01T22:55:27.907Z,67.37
2017-12-01T22:57:56.997Z,87.55
2017-12-01T23:00:25.366Z,98.12
2017-12-01T23:02:53.680Z,101.50
2017-12-01T23:05:22.115Z,104.45
2017-12-01T23:07:50.480Z,108.03
2017-12-01T23:10:18.874Z,101.62
2017-12-01T23:12:47.178Z,107.65
2017-12-01T23:15:15.498Z,108.35
2017-12-01T23:17:43.868Z,118.55
2017-12-01T23:20:12.243Z,106.63
2017-12-01T23:22:40.631Z,123.87
2017-12-01T23:25:08.982Z,121.18
2017-12-01T23:27:38.100Z,113.40
2017-12-01T23:30:06.419Z,140.70
2017-12-01T23:32:34.852Z,123.43
2017-12-01T23:35:04.048Z,110.78
2017-12-01T23:37:32.452Z,123.22
2017-12-01T23:40:00.933Z,109.85
2017-12-01T23:42:29.274Z,110.20
2017-12-01T23:44:58.365Z,99.37
2017-12-01T23:47:27.523Z,104.43
2017-12-01T23:49:55.987Z,103.95
2017-12-01T23:52:25.108Z,108.55
2017-12-01T23:54:53.505Z,109.03
2017-12-01T23:57:21.906Z,114.20
2017-12-01T23:59:50.228Z,123.20
